createdAt,value
2023-02-23T00:01:42.441Z,97.30
2023-02-23T00:04:12.133Z,97.30
2023-02-23T00:06:40.371Z,97.30
2023-02-23T00:09:15.591Z,97.30
2023-02-23T00:11:43.804Z,97.20
2023-02-23T00:14:12.057Z,97.30
2023-02-23T00:16:40.264Z,97.30
2023-02-23T00:19:08.770Z,97.30
2023-02-23T00:21:38.994Z,97.30
2023-02-23T00:24:09.327Z,97.30
2023-02-23T00:26:39.822Z,97.30
2023-02-23T00:29:09.840Z,97.40
2023-02-23T00:31:38.809Z,97.40
2023-02-23T00:34:07.747Z,97.40
2023-02-23T00:36:38.877Z,97.40
2023-02-23T00:39:21.587Z,97.40
2023-02-23T00:41:50.216Z,97.30
2023-02-23T00:44:18.481Z,97.30
2023-02-23T00:46:49.182Z,97.30
2023-02-23T00:49:17.720Z,97.30
2023-02-23T00:51:47.945Z,97.40
2023-02-23T00:54:17.775Z,97.40
2023-02-23T00:56:46.437Z,97.50
2023-02-23T00:59:15.833Z,97.40
2023-02-23T01:01:44.429Z,97.50
2023-02-23T01:04:13.823Z,97.50
2023-02-23T01:06:43.196Z,97.40
2023-02-23T01:09:16.214Z,97.40
2023-02-23T01:11:46.879Z,97.30
2023-02-23T01:14:15.395Z,97.40
2023-02-23T01:16:43.632Z,97.40
2023-02-23T01:19:12.511Z,97.40
2023-02-23T01:21:43.688Z,97.50
2023-02-23T01:24:13.865Z,97.40
2023-02-23T01:26:44.032Z,97.30
2023-02-23T01:29:14.864Z,97.30
2023-02-23T01:31:44.771Z,97.30
2023-02-23T01:34:14.289Z,97.30
2023-02-23T01:36:44.143Z,97.40
2023-02-23T01:39:15.440Z,97.20
2023-02-23T01:41:43.745Z,97.30
2023-02-23T01:44:44.980Z,97.30
2023-02-23T01:47:15.404Z,97.30
2023-02-23T01:49:43.686Z,97.50
2023-02-23T01:52:14.480Z,97.30
2023-02-23T01:54:50.609Z,97.30
2023-02-23T01:57:21.798Z,97.30
2023-02-23T01:59:51.121Z,97.30
2023-02-23T02:02:20.870Z,97.40
2023-02-23T02:04:52.208Z,97.50
2023-02-23T02:07:23.957Z,97.50
2023-02-23T02:10:09.595Z,97.50
2023-02-23T02:12:38.633Z,97.90
2023-02-23T02:15:09.477Z,97.60
2023-02-23T02:17:41.589Z,97.60
2023-02-23T02:20:42.921Z,97.70
2023-02-23T02:23:37.781Z,97.70
2023-02-23T02:26:16.488Z,97.70
2023-02-23T02:29:13.299Z,97.70
2023-02-23T02:32:11.818Z,97.80
2023-02-23T02:35:19.069Z,97.80
2023-02-23T02:37:57.011Z,97.80
2023-02-23T02:40:29.346Z,97.80
2023-02-23T02:43:08.529Z,97.80
2023-02-23T02:45:43.789Z,97.80
2023-02-23T02:48:18.427Z,97.90
2023-02-23T02:50:51.790Z,98.00
2023-02-23T02:53:25.192Z,98.00
2023-02-23T02:55:56.435Z,98.00
2023-02-23T02:58:25.669Z,98.00
2023-02-23T03:01:11.406Z,97.90
2023-02-23T03:03:58.556Z,98.00
2023-02-23T03:06:48.218Z,98.00
2023-02-23T03:09:44.664Z,98.10
2023-02-23T03:12:35.962Z,98.10
2023-02-23T03:15:30.072Z,98.20
2023-02-23T03:18:19.539Z,98.30
2023-02-23T03:21:10.717Z,98.30
2023-02-23T03:24:03.077Z,98.30
2023-02-23T03:26:55.176Z,98.40
2023-02-23T03:29:46.821Z,98.40
2023-02-23T03:32:36.278Z,98.50
2023-02-23T03:35:26.889Z,98.50
2023-02-23T03:38:16.621Z,98.50
2023-02-23T03:41:04.055Z,98.60
2023-02-23T03:43:53.580Z,98.60
2023-02-23T03:46:40.365Z,98.60
2023-02-23T03:49:28.480Z,98.60
2023-02-23T03:52:18.137Z,98.70
2023-02-23T03:55:06.444Z,98.70
2023-02-23T03:57:55.027Z,98.60
2023-02-23T04:00:46.692Z,98.70
2023-02-23T04:03:34.681Z,98.70
2023-02-23T04:06:22.120Z,98.80
2023-02-23T04:09:09.282Z,98.80
2023-02-23T04:12:00.290Z,98.80
2023-02-23T04:14:31.569Z,98.90
2023-02-23T04:17:00.250Z,98.90
2023-02-23T04:19:29.192Z,98.90
2023-02-23T04:21:57.540Z,98.90
2023-02-23T04:24:25.737Z,98.90
2023-02-23T04:26:53.946Z,99.00
2023-02-23T04:29:22.140Z,99.00
2023-02-23T04:31:50.447Z,99.10
2023-02-23T04:34:20.109Z,99.10
2023-02-23T04:36:49.389Z,99.10
2023-02-23T04:39:17.611Z,99.20
2023-02-23T04:41:45.947Z,99.20
2023-02-23T04:44:14.176Z,99.20
2023-02-23T04:46:42.397Z,99.20
2023-02-23T04:49:10.680Z,99.20
2023-02-23T04:51:40.532Z,99.20
2023-02-23T04:54:09.463Z,99.30
2023-02-23T04:56:37.711Z,99.30
2023-02-23T04:59:06.134Z,99.40
2023-02-23T05:01:34.397Z,99.40
2023-02-23T05:04:02.661Z,99.30
2023-02-23T05:06:31.610Z,99.40
2023-02-23T05:09:01.790Z,99.50
2023-02-23T05:11:30.154Z,99.50
2023-02-23T05:13:58.390Z,99.50
2023-02-23T05:16:26.703Z,99.50
2023-02-23T05:18:55.201Z,99.60
2023-02-23T05:21:23.535Z,99.50
2023-02-23T05:23:51.818Z,99.50
2023-02-23T05:26:21.610Z,99.50
2023-02-23T05:28:50.109Z,99.60
2023-02-23T05:31:18.776Z,99.70
2023-02-23T05:33:47.360Z,99.70
2023-02-23T05:36:17.978Z,99.70
2023-02-23T05:38:47.002Z,99.70
2023-02-23T05:41:17.533Z,99.70
2023-02-23T05:43:47.607Z,99.50
2023-02-23T05:46:19.069Z,99.60
2023-02-23T05:48:47.437Z,99.70
2023-02-23T05:51:17.073Z,99.70
2023-02-23T05:53:46.782Z,99.70
2023-02-23T05:56:18.324Z,99.80
2023-02-23T05:58:48.256Z,99.90
2023-02-23T06:01:17.928Z,99.80
2023-02-23T06:03:46.679Z,99.90
2023-02-23T06:06:15.363Z,99.90
2023-02-23T06:08:43.842Z,99.90
2023-02-23T06:11:12.278Z,99.90
2023-02-23T06:13:41.240Z,99.90
2023-02-23T06:16:11.280Z,99.90
2023-02-23T06:18:39.534Z,99.90
2023-02-23T06:21:07.767Z,99.90
2023-02-23T06:23:35.986Z,99.90
2023-02-23T06:26:04.223Z,99.90
2023-02-23T06:28:32.518Z,99.90
2023-02-23T06:31:00.789Z,99.90
2023-02-23T06:33:30.691Z,99.90
2023-02-23T06:35:58.881Z,99.90
2023-02-23T06:38:28.038Z,99.90
2023-02-23T06:40:56.306Z,99.90
2023-02-23T06:43:24.515Z,99.90
2023-02-23T06:45:52.689Z,99.90
2023-02-23T06:48:20.859Z,99.90
2023-02-23T06:50:50.476Z,99.90
2023-02-23T06:53:20.358Z,99.90
2023-02-23T06:55:48.570Z,99.90
2023-02-23T06:58:17.728Z,99.80
2023-02-23T07:00:45.999Z,99.80
2023-02-23T07:03:14.275Z,99.90
2023-02-23T07:05:43.374Z,99.80
2023-02-23T07:08:13.046Z,99.70
2023-02-23T07:10:41.319Z,99.60
2023-02-23T07:13:09.654Z,99.50
2023-02-23T07:15:39.096Z,99.60
2023-02-23T07:18:07.616Z,99.60
2023-02-23T07:20:36.099Z,99.70
2023-02-23T07:23:04.388Z,99.60
2023-02-23T07:25:33.971Z,99.70
2023-02-23T07:28:02.242Z,99.70
2023-02-23T07:30:30.541Z,99.70
2023-02-23T07:32:58.778Z,99.80
2023-02-23T07:35:27.032Z,99.70
2023-02-23T07:37:55.995Z,99.80
2023-02-23T07:40:25.600Z,99.80
2023-02-23T07:42:55.524Z,99.90
2023-02-23T07:45:24.996Z,99.90
2023-02-23T07:47:53.186Z,99.90
2023-02-23T07:50:21.533Z,99.90
2023-02-23T07:52:49.704Z,99.90
2023-02-23T07:55:18.003Z,99.90
2023-02-23T07:57:46.307Z,99.90
2023-02-23T08:00:16.983Z,99.90
2023-02-23T08:02:45.337Z,99.90
2023-02-23T08:05:13.940Z,99.90
2023-02-23T08:07:42.095Z,99.90
2023-02-23T08:10:11.785Z,99.90
2023-02-23T08:12:40.238Z,99.90
2023-02-23T08:15:09.480Z,99.90
2023-02-23T08:17:39.801Z,99.90
2023-02-23T08:20:09.723Z,99.90
2023-02-23T08:22:48.822Z,99.90
2023-02-23T08:25:18.316Z,99.90
2023-02-23T08:27:47.016Z,99.90
2023-02-23T08:30:15.901Z,99.90
2023-02-23T08:32:45.552Z,99.90
2023-02-23T08:35:13.760Z,99.90
2023-02-23T08:37:42.499Z,99.90
2023-02-23T08:40:12.641Z,99.90
2023-02-23T08:42:40.832Z,99.90
2023-02-23T08:45:10.157Z,99.90
2023-02-23T08:47:38.344Z,99.90
2023-02-23T08:50:10.955Z,99.90
2023-02-23T08:52:39.334Z,99.90
2023-02-23T08:55:08.454Z,99.90
2023-02-23T08:57:37.153Z,99.90
2023-02-23T09:00:11.860Z,99.90
2023-02-23T09:02:40.075Z,99.90
2023-02-23T09:05:11.073Z,99.90
2023-02-23T09:07:40.375Z,99.90
2023-02-23T09:10:10.165Z,99.90
2023-02-23T09:12:38.390Z,99.90
2023-02-23T09:15:07.465Z,99.90
2023-02-23T09:17:35.713Z,99.90
2023-02-23T09:20:04.148Z,99.90
2023-02-23T09:22:36.800Z,99.90
2023-02-23T09:25:06.376Z,99.90
2023-02-23T09:27:34.665Z,99.90
2023-02-23T09:30:02.921Z,99.90
2023-02-23T09:32:31.494Z,99.90
2023-02-23T09:34:59.821Z,99.90
2023-02-23T09:37:28.019Z,99.90
2023-02-23T09:39:58.150Z,99.90
2023-02-23T09:42:33.766Z,99.90
2023-02-23T09:45:08.563Z,99.90
2023-02-23T09:47:42.504Z,99.90
2023-02-23T09:50:17.766Z,99.90
2023-02-23T09:52:50.420Z,99.90
2023-02-23T09:55:20.304Z,99.90
2023-02-23T09:57:50.127Z,99.90
2023-02-23T10:00:22.890Z,99.90
2023-02-23T10:03:07.897Z,99.90
2023-02-23T10:05:41.313Z,99.90
2023-02-23T10:08:18.387Z,99.90
2023-02-23T10:10:50.438Z,99.90
2023-02-23T10:13:27.644Z,99.90
2023-02-23T10:15:59.317Z,99.90
2023-02-23T10:18:45.660Z,99.90
2023-02-23T10:21:18.545Z,99.90
2023-02-23T10:23:49.395Z,99.90
2023-02-23T10:26:22.514Z,99.90
2023-02-23T10:28:51.777Z,99.90
2023-02-23T10:31:28.287Z,99.90
2023-02-23T10:33:59.008Z,99.90
2023-02-23T10:36:36.792Z,99.90
2023-02-23T10:39:07.553Z,99.90
2023-02-23T10:41:38.271Z,99.90
2023-02-23T10:44:16.489Z,99.90
2023-02-23T10:46:46.602Z,99.90
2023-02-23T10:49:18.705Z,99.90
2023-02-23T10:51:46.999Z,99.90
2023-02-23T10:54:51.891Z,99.90
2023-02-23T10:57:28.084Z,99.90
2023-02-23T11:00:20.367Z,99.90
2023-02-23T11:02:49.293Z,99.90
2023-02-23T11:05:33.481Z,99.90
2023-02-23T11:08:20.807Z,99.90
2023-02-23T11:11:08.372Z,99.90
2023-02-23T11:13:41.568Z,99.90
2023-02-23T11:16:13.897Z,99.90
2023-02-23T11:18:43.774Z,99.90
2023-02-23T11:21:19.877Z,99.90
2023-02-23T11:23:51.061Z,99.90
2023-02-23T11:26:32.533Z,99.90
2023-02-23T11:29:05.832Z,99.90
2023-02-23T11:31:36.359Z,99.90
2023-02-23T11:34:06.407Z,99.90
2023-02-23T11:36:35.761Z,99.90
2023-02-23T11:39:27.703Z,99.90
2023-02-23T11:42:14.856Z,99.90
2023-02-23T11:44:45.197Z,99.90
2023-02-23T11:47:19.012Z,99.90
2023-02-23T11:49:49.194Z,99.90
2023-02-23T11:52:19.223Z,99.90
2023-02-23T11:54:53.045Z,99.90
2023-02-23T11:57:23.186Z,99.90
2023-02-23T11:59:53.254Z,99.90
2023-02-23T12:02:24.991Z,99.90
2023-02-23T12:05:03.205Z,99.90
2023-02-23T12:07:38.864Z,99.90
2023-02-23T12:10:15.259Z,99.90
2023-02-23T12:12:52.615Z,99.90
2023-02-23T12:15:35.842Z,99.90
2023-02-23T12:18:08.217Z,99.90
2023-02-23T12:20:40.219Z,99.90
2023-02-23T12:23:10.845Z,99.90
2023-02-23T12:25:43.937Z,99.90
2023-02-23T12:28:19.243Z,99.90
2023-02-23T12:30:53.083Z,99.90
2023-02-23T12:33:26.064Z,99.90
2023-02-23T12:35:57.352Z,99.90
2023-02-23T12:38:33.334Z,99.90
2023-02-23T12:41:07.847Z,99.90
2023-02-23T12:43:40.547Z,99.90
2023-02-23T12:46:14.191Z,99.90
2023-02-23T12:48:49.707Z,99.90
2023-02-23T12:51:25.488Z,99.90
2023-02-23T12:53:54.106Z,99.90
2023-02-23T12:56:46.449Z,99.90
2023-02-23T12:59:25.466Z,99.90
2023-02-23T13:01:58.683Z,99.90
2023-02-23T13:04:47.253Z,99.90
2023-02-23T13:07:20.404Z,99.90
2023-02-23T13:10:03.928Z,99.90
2023-02-23T13:12:41.743Z,99.90
2023-02-23T13:15:19.758Z,99.90
2023-02-23T13:17:54.344Z,99.90
2023-02-23T13:20:27.630Z,99.90
2023-02-23T13:22:59.680Z,99.90
2023-02-23T13:25:34.790Z,99.90
2023-02-23T13:28:03.056Z,99.90
2023-02-23T13:30:33.571Z,99.90
2023-02-23T13:33:10.303Z,99.90
2023-02-23T13:35:39.482Z,99.90
2023-02-23T13:38:16.265Z,99.80
2023-02-23T13:40:48.323Z,99.70
2023-02-23T13:43:23.288Z,99.30
2023-02-23T13:46:04.570Z,98.90
2023-02-23T13:48:56.031Z,99.00
2023-02-23T13:51:34.104Z,99.00
2023-02-23T13:54:06.166Z,99.20
2023-02-23T13:56:43.020Z,99.20
2023-02-23T13:59:18.393Z,99.10
2023-02-23T14:01:49.016Z,99.10
2023-02-23T14:04:24.133Z,99.20
2023-02-23T14:06:56.466Z,99.30
2023-02-23T14:09:29.637Z,99.40
2023-02-23T14:12:04.114Z,99.40
2023-02-23T14:14:44.462Z,99.20
2023-02-23T14:17:28.686Z,98.90
2023-02-23T14:20:32.642Z,98.60
2023-02-23T14:23:34.654Z,98.50
2023-02-23T14:26:15.825Z,98.50
2023-02-23T14:28:46.057Z,98.30
2023-02-23T14:31:25.933Z,98.40
2023-02-23T14:34:00.417Z,98.30
2023-02-23T14:36:39.567Z,98.10
2023-02-23T14:39:19.008Z,97.30
2023-02-23T14:41:51.211Z,97.30
2023-02-23T14:44:30.638Z,97.40
2023-02-23T14:47:03.752Z,97.30
2023-02-23T14:49:35.084Z,97.40
2023-02-23T14:52:07.941Z,97.40
2023-02-23T14:54:38.573Z,97.50
2023-02-23T14:57:08.432Z,97.50
2023-02-23T14:59:41.392Z,97.60
2023-02-23T15:02:11.724Z,97.50
2023-02-23T15:04:40.065Z,97.50
2023-02-23T15:07:12.040Z,97.30
2023-02-23T15:09:43.781Z,97.40
2023-02-23T15:12:17.018Z,97.30
2023-02-23T15:14:45.379Z,97.50
2023-02-23T15:17:17.079Z,97.40
2023-02-23T15:19:46.248Z,97.20
2023-02-23T15:22:22.619Z,97.30
2023-02-23T15:24:52.552Z,97.50
2023-02-23T15:27:26.964Z,97.20
2023-02-23T15:29:55.519Z,97.10
2023-02-23T15:32:26.758Z,97.20
2023-02-23T15:34:56.688Z,97.20
2023-02-23T15:37:31.992Z,97.20
2023-02-23T15:40:04.272Z,97.20
2023-02-23T15:42:37.465Z,97.30
2023-02-23T15:45:15.087Z,97.20
2023-02-23T15:47:43.941Z,97.20
2023-02-23T15:50:21.982Z,97.30
2023-02-23T15:52:59.487Z,97.30
2023-02-23T15:55:35.488Z,97.30
2023-02-23T15:58:15.360Z,97.20
2023-02-23T16:00:44.882Z,97.00
2023-02-23T16:03:24.680Z,97.00
2023-02-23T16:06:00.471Z,96.80
2023-02-23T16:08:29.738Z,96.90
2023-02-23T16:11:04.719Z,97.00
2023-02-23T16:13:33.121Z,96.90
2023-02-23T16:16:01.414Z,96.70
2023-02-23T16:18:36.936Z,96.50
2023-02-23T16:21:06.094Z,96.50
2023-02-23T16:23:37.330Z,96.60
2023-02-23T16:26:12.227Z,96.80
2023-02-23T16:28:43.867Z,96.50
2023-02-23T16:31:14.547Z,96.40
2023-02-23T16:33:44.442Z,96.50
2023-02-23T16:36:22.187Z,96.60
2023-02-23T16:38:59.140Z,96.60
2023-02-23T16:41:31.009Z,96.60
2023-02-23T16:44:00.940Z,96.70
2023-02-23T16:46:31.069Z,96.70
2023-02-23T16:49:05.189Z,96.60
2023-02-23T16:51:34.797Z,96.60
2023-02-23T16:54:04.698Z,96.60
2023-02-23T16:56:35.817Z,96.70
2023-02-23T16:59:05.253Z,96.80
2023-02-23T17:01:33.526Z,96.90
2023-02-23T17:04:01.723Z,97.00
2023-02-23T17:06:30.108Z,97.10
2023-02-23T17:08:58.758Z,97.10
2023-02-23T17:11:27.165Z,97.20
2023-02-23T17:13:56.811Z,97.20
2023-02-23T17:16:25.314Z,97.30
2023-02-23T17:18:53.649Z,97.40
2023-02-23T17:21:23.932Z,97.40
2023-02-23T17:23:53.523Z,97.40
2023-02-23T17:26:23.897Z,97.60
2023-02-23T17:28:53.932Z,97.40
2023-02-23T17:31:26.629Z,97.50
2023-02-23T17:33:55.785Z,97.40
2023-02-23T17:36:27.468Z,97.40
2023-02-23T17:38:58.817Z,97.50
2023-02-23T17:41:27.463Z,97.50
2023-02-23T17:43:55.846Z,97.50
2023-02-23T17:46:25.543Z,97.80
2023-02-23T17:48:56.609Z,98.00
2023-02-23T17:51:25.136Z,98.60
2023-02-23T17:53:53.573Z,98.30
2023-02-23T17:56:23.732Z,98.40
2023-02-23T17:58:51.953Z,98.80
2023-02-23T18:01:20.643Z,99.00
2023-02-23T18:03:51.018Z,99.40
2023-02-23T18:06:19.863Z,99.90
2023-02-23T18:08:48.068Z,99.90
2023-02-23T18:11:18.716Z,99.90
2023-02-23T18:13:48.191Z,99.90
2023-02-23T18:16:16.754Z,99.90
2023-02-23T18:18:46.906Z,99.90
2023-02-23T18:21:19.167Z,99.90
2023-02-23T18:23:48.011Z,99.90
2023-02-23T18:26:18.534Z,99.90
2023-02-23T18:28:48.201Z,99.90
2023-02-23T18:31:19.661Z,99.90
2023-02-23T18:33:53.069Z,99.90
2023-02-23T18:36:24.709Z,99.90
2023-02-23T18:38:54.752Z,99.90
2023-02-23T18:41:23.411Z,99.90
2023-02-23T18:43:51.840Z,99.90
2023-02-23T18:46:20.068Z,99.90
2023-02-23T18:48:51.300Z,99.90
2023-02-23T18:51:20.080Z,99.90
2023-02-23T18:53:50.395Z,99.90
2023-02-23T18:56:22.890Z,99.90
2023-02-23T18:58:51.751Z,99.90
2023-02-23T19:01:21.838Z,99.90
2023-02-23T19:03:52.342Z,98.90
2023-02-23T19:06:21.614Z,97.40
2023-02-23T19:08:54.349Z,96.50
2023-02-23T19:11:24.487Z,96.40
2023-02-23T19:13:52.904Z,95.80
2023-02-23T19:16:21.658Z,95.30
2023-02-23T19:18:50.123Z,95.20
2023-02-23T19:21:22.638Z,95.00
2023-02-23T19:23:53.061Z,95.30
2023-02-23T19:26:21.627Z,94.70
2023-02-23T19:28:50.145Z,95.00
2023-02-23T19:31:22.381Z,94.80
2023-02-23T19:33:51.388Z,94.30
2023-02-23T19:36:21.949Z,94.10
2023-02-23T19:38:50.322Z,94.10
2023-02-23T19:41:21.558Z,93.90
2023-02-23T19:43:50.153Z,93.70
2023-02-23T19:46:18.661Z,93.70
2023-02-23T19:48:51.978Z,93.90
2023-02-23T19:51:21.239Z,93.70
2023-02-23T19:53:49.822Z,93.80
2023-02-23T19:56:19.457Z,93.90
2023-02-23T19:58:49.345Z,94.10
2023-02-23T20:01:19.681Z,93.90
2023-02-23T20:03:55.595Z,94.00
2023-02-23T20:06:25.939Z,94.00
2023-02-23T20:08:55.158Z,93.90
2023-02-23T20:11:25.097Z,93.90
2023-02-23T20:13:53.325Z,93.90
2023-02-23T20:16:22.157Z,94.20
2023-02-23T20:18:50.382Z,94.20
2023-02-23T20:21:23.305Z,94.30
2023-02-23T20:23:52.073Z,94.00
2023-02-23T20:26:22.602Z,94.00
2023-02-23T20:28:52.324Z,93.80
2023-02-23T20:31:23.091Z,93.70
2023-02-23T20:33:51.785Z,94.20
2023-02-23T20:36:20.835Z,94.00
2023-02-23T20:38:49.381Z,94.10
2023-02-23T20:41:18.657Z,93.90
2023-02-23T20:43:47.404Z,93.90
2023-02-23T20:46:19.821Z,94.20
2023-02-23T20:48:49.171Z,93.90
2023-02-23T20:51:19.453Z,94.30
2023-02-23T20:53:49.100Z,94.40
2023-02-23T20:56:19.642Z,94.40
2023-02-23T20:58:48.070Z,94.40
2023-02-23T21:01:21.808Z,94.50
2023-02-23T21:03:51.185Z,94.30
2023-02-23T21:06:20.126Z,94.20
2023-02-23T21:08:49.030Z,94.20
2023-02-23T21:11:17.866Z,94.40
2023-02-23T21:13:46.575Z,94.40
2023-02-23T21:16:15.954Z,94.40
2023-02-23T21:18:45.940Z,94.40
2023-02-23T21:21:15.881Z,94.40
2023-02-23T21:23:44.916Z,94.50
2023-02-23T21:26:15.849Z,94.10
2023-02-23T21:28:45.508Z,93.90
2023-02-23T21:31:15.149Z,94.10
2023-02-23T21:33:46.234Z,94.10
2023-02-23T21:36:14.794Z,94.20
2023-02-23T21:38:44.457Z,94.10
2023-02-23T21:41:13.723Z,93.80
2023-02-23T21:43:44.029Z,94.10
2023-02-23T21:46:13.907Z,94.30
2023-02-23T21:48:42.929Z,94.40
2023-02-23T21:51:14.483Z,94.30
2023-02-23T21:53:43.275Z,94.10
2023-02-23T21:56:13.593Z,94.30
2023-02-23T21:58:46.126Z,93.40
2023-02-23T22:01:15.759Z,93.30
2023-02-23T22:03:45.188Z,93.70
2023-02-23T22:06:16.021Z,93.70
2023-02-23T22:08:44.933Z,93.70
2023-02-23T22:11:17.515Z,93.90
2023-02-23T22:13:46.267Z,93.70
2023-02-23T22:16:15.925Z,93.70
2023-02-23T22:18:44.593Z,93.50
2023-02-23T22:21:14.592Z,93.50
2023-02-23T22:23:44.012Z,93.40
2023-02-23T22:26:12.258Z,93.20
2023-02-23T22:28:40.597Z,93.00
2023-02-23T22:31:11.123Z,93.10
2023-02-23T22:33:41.609Z,93.00
2023-02-23T22:36:13.031Z,92.60
2023-02-23T22:38:43.198Z,92.40
2023-02-23T22:41:11.741Z,92.40
2023-02-23T22:43:40.251Z,91.80
2023-02-23T22:46:09.003Z,90.90
2023-02-23T22:48:37.381Z,90.50
2023-02-23T22:51:07.815Z,90.00
2023-02-23T22:53:36.045Z,89.20
2023-02-23T22:56:06.326Z,88.70
2023-02-23T22:58:34.560Z,87.80
2023-02-23T23:01:06.527Z,87.70
2023-02-23T23:03:36.498Z,88.10
2023-02-23T23:06:05.453Z,88.20
2023-02-23T23:08:37.017Z,88.10
2023-02-23T23:11:09.588Z,88.30
2023-02-23T23:13:44.472Z,87.90
2023-02-23T23:16:25.503Z,87.90
2023-02-23T23:19:02.598Z,87.40
2023-02-23T23:21:32.103Z,86.70
2023-02-23T23:24:02.083Z,86.60
2023-02-23T23:26:31.846Z,86.50
2023-02-23T23:29:04.621Z,87.00
2023-02-23T23:31:34.904Z,86.90
2023-02-23T23:34:04.948Z,85.60
2023-02-23T23:36:37.284Z,85.60
2023-02-23T23:39:07.253Z,85.70
2023-02-23T23:41:37.253Z,85.60
2023-02-23T23:44:06.000Z,85.70
2023-02-23T23:46:35.682Z,86.20
2023-02-23T23:49:06.469Z,86.00
2023-02-23T23:51:38.902Z,85.90
2023-02-23T23:54:09.760Z,86.90
2023-02-23T23:56:39.444Z,87.30
2023-02-23T23:59:09.080Z,87.30
